Terminal Aerodrome Forecast
Issued by NWS

Home | Current Version | Previous Version | Text Only | Print | Product List | Glossary On
Versions: 1 2 3 4 5 6 7 8 9 10 11 12 13 14 15
000
FTUS45 KABQ 301300 AAA
TAFLVS
TAF AMD
KLVS 301353Z 3014/3112 VRB03KT P6SM SCT015 OVC025
      TEMPO 3015/3018 1SM -SN BR OVC010
     FM301800 16010KT 2SM -SN BR SCT003 OVC008
     FM310200 18010KT 1SM -SN BR OVC006=

USA.gov is the U.S. government's official web portal to all federal, state and local government web resources and services.